sensor_id;sensor_type;location;lat;lon;timestamp;P1;durP1;ratioP1;P2;durP2;ratioP2
7997;SDS011;4044;49.814;7.828;2023-04-24T00:01:38;1.50;;;1.20;;
7997;SDS011;4044;49.814;7.828;2023-04-24T00:04:04;2.60;;;1.40;;
7997;SDS011;4044;49.814;7.828;2023-04-24T00:06:31;1.47;;;1.20;;
7997;SDS011;4044;49.814;7.828;2023-04-24T00:09:02;1.50;;;1.10;;
7997;SDS011;4044;49.814;7.828;2023-04-24T00:11:30;3.70;;;1.30;;
7997;SDS011;4044;49.814;7.828;2023-04-24T00:13:56;2.20;;;1.40;;
7997;SDS011;4044;49.814;7.828;2023-04-24T00:16:22;1.53;;;1.40;;
7997;SDS011;4044;49.814;7.828;2023-04-24T00:18:48;1.63;;;1.20;;
7997;SDS011;4044;49.814;7.828;2023-04-24T00:21:14;1.30;;;1.20;;
7997;SDS011;4044;49.814;7.828;2023-04-24T00:23:41;1.30;;;1.20;;
7997;SDS011;4044;49.814;7.828;2023-04-24T00:26:06;1.10;;;1.10;;
7997;SDS011;4044;49.814;7.828;2023-04-24T00:28:32;1.00;;;1.00;;
7997;SDS011;4044;49.814;7.828;2023-04-24T00:30:57;1.20;;;1.10;;
7997;SDS011;4044;49.814;7.828;2023-04-24T00:33:22;3.03;;;1.13;;
7997;SDS011;4044;49.814;7.828;2023-04-24T00:35:48;2.13;;;1.37;;
7997;SDS011;4044;49.814;7.828;2023-04-24T00:38:13;1.40;;;1.30;;
7997;SDS011;4044;49.814;7.828;2023-04-24T00:40:39;3.20;;;1.30;;
7997;SDS011;4044;49.814;7.828;2023-04-24T00:43:04;2.57;;;1.40;;
7997;SDS011;4044;49.814;7.828;2023-04-24T00:45:30;1.10;;;1.07;;
7997;SDS011;4044;49.814;7.828;2023-04-24T00:47:56;1.00;;;1.00;;
7997;SDS011;4044;49.814;7.828;2023-04-24T00:50:23;3.07;;;1.20;;
7997;SDS011;4044;49.814;7.828;2023-04-24T00:52:49;2.50;;;1.40;;
7997;SDS011;4044;49.814;7.828;2023-04-24T00:55:15;1.83;;;1.10;;
7997;SDS011;4044;49.814;7.828;2023-04-24T00:57:41;1.23;;;1.13;;
7997;SDS011;4044;49.814;7.828;2023-04-24T01:00:07;1.87;;;1.10;;
7997;SDS011;4044;49.814;7.828;2023-04-24T01:02:37;1.30;;;1.20;;
7997;SDS011;4044;49.814;7.828;2023-04-24T01:05:05;1.40;;;1.30;;
7997;SDS011;4044;49.814;7.828;2023-04-24T01:07:32;1.67;;;1.17;;
7997;SDS011;4044;49.814;7.828;2023-04-24T01:09:59;2.67;;;1.27;;
7997;SDS011;4044;49.814;7.828;2023-04-24T01:12:24;1.10;;;1.10;;
7997;SDS011;4044;49.814;7.828;2023-04-24T01:14:50;1.23;;;1.20;;
7997;SDS011;4044;49.814;7.828;2023-04-24T01:17:16;1.87;;;1.10;;
7997;SDS011;4044;49.814;7.828;2023-04-24T01:19:41;1.13;;;1.00;;
7997;SDS011;4044;49.814;7.828;2023-04-24T01:22:13;1.40;;;1.13;;
7997;SDS011;4044;49.814;7.828;2023-04-24T01:24:39;4.47;;;1.20;;
7997;SDS011;4044;49.814;7.828;2023-04-24T01:27:05;1.20;;;1.07;;
7997;SDS011;4044;49.814;7.828;2023-04-24T01:29:31;1.30;;;1.13;;
7997;SDS011;4044;49.814;7.828;2023-04-24T01:31:57;1.97;;;1.33;;
7997;SDS011;4044;49.814;7.828;2023-04-24T01:34:23;2.67;;;1.40;;
7997;SDS011;4044;49.814;7.828;2023-04-24T01:36:49;1.33;;;1.20;;
7997;SDS011;4044;49.814;7.828;2023-04-24T01:39:15;1.80;;;1.00;;
7997;SDS011;4044;49.814;7.828;2023-04-24T01:41:41;1.00;;;1.00;;
7997;SDS011;4044;49.814;7.828;2023-04-24T01:44:07;1.10;;;1.10;;
7997;SDS011;4044;49.814;7.828;2023-04-24T01:46:33;0.83;;;0.83;;
7997;SDS011;4044;49.814;7.828;2023-04-24T01:49:00;1.37;;;1.27;;
7997;SDS011;4044;49.814;7.828;2023-04-24T01:51:26;1.07;;;1.00;;
7997;SDS011;4044;49.814;7.828;2023-04-24T01:53:52;2.77;;;1.57;;
7997;SDS011;4044;49.814;7.828;2023-04-24T01:56:19;1.80;;;1.20;;
7997;SDS011;4044;49.814;7.828;2023-04-24T01:58:46;1.60;;;1.10;;
7997;SDS011;4044;49.814;7.828;2023-04-24T02:01:18;0.93;;;0.93;;
7997;SDS011;4044;49.814;7.828;2023-04-24T02:03:45;0.70;;;0.70;;
7997;SDS011;4044;49.814;7.828;2023-04-24T02:06:10;1.80;;;1.10;;
7997;SDS011;4044;49.814;7.828;2023-04-24T02:08:36;2.00;;;0.83;;
7997;SDS011;4044;49.814;7.828;2023-04-24T02:11:01;0.90;;;0.90;;
7997;SDS011;4044;49.814;7.828;2023-04-24T02:13:27;0.73;;;0.73;;
7997;SDS011;4044;49.814;7.828;2023-04-24T02:15:53;1.20;;;0.90;;
7997;SDS011;4044;49.814;7.828;2023-04-24T02:18:19;0.77;;;0.77;;
7997;SDS011;4044;49.814;7.828;2023-04-24T02:20:44;1.27;;;0.70;;
7997;SDS011;4044;49.814;7.828;2023-04-24T02:23:10;1.20;;;0.73;;
7997;SDS011;4044;49.814;7.828;2023-04-24T02:25:36;1.67;;;0.70;;
7997;SDS011;4044;49.814;7.828;2023-04-24T02:28:02;0.60;;;0.60;;
7997;SDS011;4044;49.814;7.828;2023-04-24T02:30:27;1.03;;;0.83;;
7997;SDS011;4044;49.814;7.828;2023-04-24T02:32:53;0.70;;;0.67;;
7997;SDS011;4044;49.814;7.828;2023-04-24T02:35:20;0.90;;;0.90;;
7997;SDS011;4044;49.814;7.828;2023-04-24T02:37:45;1.27;;;0.80;;
7997;SDS011;4044;49.814;7.828;2023-04-24T02:40:11;1.10;;;0.90;;
7997;SDS011;4044;49.814;7.828;2023-04-24T02:42:36;1.10;;;0.93;;
7997;SDS011;4044;49.814;7.828;2023-04-24T02:45:02;0.90;;;0.90;;
7997;SDS011;4044;49.814;7.828;2023-04-24T02:47:28;1.20;;;1.20;;
7997;SDS011;4044;49.814;7.828;2023-04-24T02:49:53;1.20;;;1.10;;
7997;SDS011;4044;49.814;7.828;2023-04-24T02:52:19;1.37;;;1.20;;
7997;SDS011;4044;49.814;7.828;2023-04-24T02:54:44;1.13;;;1.10;;
7997;SDS011;4044;49.814;7.828;2023-04-24T02:57:10;1.40;;;1.03;;
7997;SDS011;4044;49.814;7.828;2023-04-24T02:59:35;1.00;;;1.00;;
7997;SDS011;4044;49.814;7.828;2023-04-24T03:02:01;1.10;;;1.10;;
7997;SDS011;4044;49.814;7.828;2023-04-24T03:04:26;1.30;;;1.20;;
7997;SDS011;4044;49.814;7.828;2023-04-24T03:06:52;1.00;;;1.00;;
7997;SDS011;4044;49.814;7.828;2023-04-24T03:09:19;0.90;;;0.90;;
7997;SDS011;4044;49.814;7.828;2023-04-24T03:11:45;1.60;;;1.50;;
7997;SDS011;4044;49.814;7.828;2023-04-24T03:14:11;1.20;;;1.10;;
7997;SDS011;4044;49.814;7.828;2023-04-24T03:16:37;2.60;;;1.30;;
7997;SDS011;4044;49.814;7.828;2023-04-24T03:19:02;1.63;;;1.53;;
7997;SDS011;4044;49.814;7.828;2023-04-24T03:21:28;1.47;;;1.27;;
7997;SDS011;4044;49.814;7.828;2023-04-24T03:23:53;1.47;;;1.37;;
7997;SDS011;4044;49.814;7.828;2023-04-24T03:26:19;1.30;;;1.20;;
7997;SDS011;4044;49.814;7.828;2023-04-24T03:28:45;1.20;;;1.20;;
7997;SDS011;4044;49.814;7.828;2023-04-24T03:31:10;1.30;;;1.30;;
7997;SDS011;4044;49.814;7.828;2023-04-24T03:33:36;1.60;;;1.50;;
7997;SDS011;4044;49.814;7.828;2023-04-24T03:36:01;1.40;;;1.40;;
7997;SDS011;4044;49.814;7.828;2023-04-24T03:38:27;1.53;;;1.40;;
7997;SDS011;4044;49.814;7.828;2023-04-24T03:40:53;1.60;;;1.50;;
7997;SDS011;4044;49.814;7.828;2023-04-24T03:43:18;2.60;;;1.87;;
7997;SDS011;4044;49.814;7.828;2023-04-24T03:45:44;2.00;;;1.90;;
7997;SDS011;4044;49.814;7.828;2023-04-24T03:48:09;1.73;;;1.63;;
7997;SDS011;4044;49.814;7.828;2023-04-24T03:50:35;2.17;;;2.07;;
7997;SDS011;4044;49.814;7.828;2023-04-24T03:53:00;1.73;;;1.63;;
7997;SDS011;4044;49.814;7.828;2023-04-24T03:55:26;1.80;;;1.70;;
7997;SDS011;4044;49.814;7.828;2023-04-24T03:57:51;1.80;;;1.70;;
7997;SDS011;4044;49.814;7.828;2023-04-24T04:00:17;3.07;;;1.83;;
7997;SDS011;4044;49.814;7.828;2023-04-24T04:02:43;1.70;;;1.60;;
7997;SDS011;4044;49.814;7.828;2023-04-24T04:05:09;1.77;;;1.67;;
7997;SDS011;4044;49.814;7.828;2023-04-24T04:07:34;1.87;;;1.70;;
7997;SDS011;4044;49.814;7.828;2023-04-24T04:10:00;2.13;;;2.03;;
7997;SDS011;4044;49.814;7.828;2023-04-24T04:12:25;1.70;;;1.60;;
7997;SDS011;4044;49.814;7.828;2023-04-24T04:14:51;1.90;;;1.80;;
7997;SDS011;4044;49.814;7.828;2023-04-24T04:17:16;1.87;;;1.77;;
7997;SDS011;4044;49.814;7.828;2023-04-24T04:19:42;1.70;;;1.60;;
7997;SDS011;4044;49.814;7.828;2023-04-24T04:22:08;2.00;;;1.90;;
7997;SDS011;4044;49.814;7.828;2023-04-24T04:24:33;2.60;;;2.40;;
7997;SDS011;4044;49.814;7.828;2023-04-24T04:27:02;2.00;;;1.90;;
7997;SDS011;4044;49.814;7.828;2023-04-24T04:29:29;2.00;;;1.90;;
7997;SDS011;4044;49.814;7.828;2023-04-24T04:31:56;2.00;;;1.90;;
7997;SDS011;4044;49.814;7.828;2023-04-24T04:34:22;1.93;;;1.83;;
7997;SDS011;4044;49.814;7.828;2023-04-24T04:36:48;1.90;;;1.80;;
7997;SDS011;4044;49.814;7.828;2023-04-24T04:39:13;2.10;;;2.00;;
7997;SDS011;4044;49.814;7.828;2023-04-24T04:41:40;2.37;;;2.27;;
7997;SDS011;4044;49.814;7.828;2023-04-24T04:44:06;2.20;;;2.10;;
7997;SDS011;4044;49.814;7.828;2023-04-24T04:46:33;2.50;;;2.40;;
7997;SDS011;4044;49.814;7.828;2023-04-24T04:48:59;2.33;;;2.23;;
7997;SDS011;4044;49.814;7.828;2023-04-24T04:51:26;2.50;;;2.30;;
7997;SDS011;4044;49.814;7.828;2023-04-24T04:53:52;2.57;;;2.37;;
7997;SDS011;4044;49.814;7.828;2023-04-24T04:56:17;2.30;;;2.20;;
7997;SDS011;4044;49.814;7.828;2023-04-24T04:58:43;2.40;;;2.20;;
7997;SDS011;4044;49.814;7.828;2023-04-24T05:01:09;2.40;;;2.20;;
7997;SDS011;4044;49.814;7.828;2023-04-24T05:03:34;2.50;;;2.30;;
7997;SDS011;4044;49.814;7.828;2023-04-24T05:06:00;2.73;;;2.20;;
7997;SDS011;4044;49.814;7.828;2023-04-24T05:08:27;2.43;;;2.00;;
7997;SDS011;4044;49.814;7.828;2023-04-24T05:10:52;2.20;;;2.00;;
7997;SDS011;4044;49.814;7.828;2023-04-24T05:13:18;2.60;;;2.00;;
7997;SDS011;4044;49.814;7.828;2023-04-24T05:15:44;4.77;;;2.40;;
7997;SDS011;4044;49.814;7.828;2023-04-24T05:18:09;2.30;;;2.10;;
7997;SDS011;4044;49.814;7.828;2023-04-24T05:20:35;2.30;;;2.10;;
7997;SDS011;4044;49.814;7.828;2023-04-24T05:23:00;2.20;;;2.10;;
7997;SDS011;4044;49.814;7.828;2023-04-24T05:25:26;2.53;;;2.30;;
7997;SDS011;4044;49.814;7.828;2023-04-24T05:27:52;2.80;;;2.40;;
7997;SDS011;4044;49.814;7.828;2023-04-24T05:30:18;2.70;;;2.50;;
7997;SDS011;4044;49.814;7.828;2023-04-24T05:32:44;3.27;;;3.00;;
7997;SDS011;4044;49.814;7.828;2023-04-24T05:35:10;4.13;;;3.00;;
7997;SDS011;4044;49.814;7.828;2023-04-24T05:37:35;3.00;;;2.70;;
7997;SDS011;4044;49.814;7.828;2023-04-24T05:40:01;2.80;;;2.60;;
7997;SDS011;4044;49.814;7.828;2023-04-24T05:42:29;3.10;;;2.90;;
7997;SDS011;4044;49.814;7.828;2023-04-24T05:44:54;3.23;;;3.03;;
7997;SDS011;4044;49.814;7.828;2023-04-24T05:47:20;3.20;;;2.90;;
7997;SDS011;4044;49.814;7.828;2023-04-24T05:49:47;3.27;;;2.97;;
7997;SDS011;4044;49.814;7.828;2023-04-24T05:52:12;3.87;;;3.57;;
7997;SDS011;4044;49.814;7.828;2023-04-24T05:54:38;4.50;;;4.10;;
7997;SDS011;4044;49.814;7.828;2023-04-24T05:57:04;3.93;;;3.60;;
7997;SDS011;4044;49.814;7.828;2023-04-24T05:59:32;4.47;;;4.07;;
7997;SDS011;4044;49.814;7.828;2023-04-24T06:01:58;5.67;;;4.80;;
7997;SDS011;4044;49.814;7.828;2023-04-24T06:04:24;4.87;;;4.17;;
7997;SDS011;4044;49.814;7.828;2023-04-24T06:06:50;5.13;;;4.40;;
7997;SDS011;4044;49.814;7.828;2023-04-24T06:09:20;6.63;;;5.23;;
7997;SDS011;4044;49.814;7.828;2023-04-24T06:11:47;5.00;;;4.43;;
7997;SDS011;4044;49.814;7.828;2023-04-24T06:14:12;7.23;;;4.70;;
7997;SDS011;4044;49.814;7.828;2023-04-24T06:16:38;5.83;;;4.90;;
7997;SDS011;4044;49.814;7.828;2023-04-24T06:19:05;5.00;;;4.60;;
7997;SDS011;4044;49.814;7.828;2023-04-24T06:21:30;5.97;;;5.37;;
7997;SDS011;4044;49.814;7.828;2023-04-24T06:23:56;6.30;;;5.50;;
7997;SDS011;4044;49.814;7.828;2023-04-24T06:26:23;6.20;;;5.70;;
7997;SDS011;4044;49.814;7.828;2023-04-24T06:28:50;6.30;;;5.47;;
7997;SDS011;4044;49.814;7.828;2023-04-24T06:31:16;5.87;;;5.30;;
7997;SDS011;4044;49.814;7.828;2023-04-24T06:33:42;5.80;;;5.30;;
7997;SDS011;4044;49.814;7.828;2023-04-24T06:36:08;5.30;;;4.87;;
7997;SDS011;4044;49.814;7.828;2023-04-24T06:38:33;5.60;;;4.90;;
7997;SDS011;4044;49.814;7.828;2023-04-24T06:40:59;5.83;;;5.23;;
7997;SDS011;4044;49.814;7.828;2023-04-24T06:43:25;5.20;;;4.80;;
7997;SDS011;4044;49.814;7.828;2023-04-24T06:45:50;4.80;;;4.43;;
7997;SDS011;4044;49.814;7.828;2023-04-24T06:48:16;5.60;;;4.00;;
7997;SDS011;4044;49.814;7.828;2023-04-24T06:50:41;4.70;;;4.20;;
7997;SDS011;4044;49.814;7.828;2023-04-24T06:53:07;4.20;;;3.90;;
7997;SDS011;4044;49.814;7.828;2023-04-24T06:55:33;4.17;;;3.77;;
7997;SDS011;4044;49.814;7.828;2023-04-24T06:58:00;3.90;;;3.50;;
7997;SDS011;4044;49.814;7.828;2023-04-24T07:00:26;4.87;;;3.73;;
7997;SDS011;4044;49.814;7.828;2023-04-24T07:02:51;3.90;;;3.47;;
7997;SDS011;4044;49.814;7.828;2023-04-24T07:05:16;3.83;;;3.43;;
7997;SDS011;4044;49.814;7.828;2023-04-24T07:07:45;4.60;;;3.90;;
7997;SDS011;4044;49.814;7.828;2023-04-24T07:10:11;4.07;;;3.00;;
7997;SDS011;4044;49.814;7.828;2023-04-24T07:12:37;3.13;;;2.93;;
7997;SDS011;4044;49.814;7.828;2023-04-24T07:15:03;2.90;;;2.70;;
7997;SDS011;4044;49.814;7.828;2023-04-24T07:17:30;2.77;;;2.57;;
7997;SDS011;4044;49.814;7.828;2023-04-24T07:19:55;2.83;;;2.63;;
7997;SDS011;4044;49.814;7.828;2023-04-24T07:22:21;3.03;;;2.73;;
7997;SDS011;4044;49.814;7.828;2023-04-24T07:24:46;3.73;;;2.40;;
7997;SDS011;4044;49.814;7.828;2023-04-24T07:27:12;2.50;;;2.30;;
7997;SDS011;4044;49.814;7.828;2023-04-24T07:29:39;2.47;;;2.27;;
7997;SDS011;4044;49.814;7.828;2023-04-24T07:32:05;2.50;;;2.30;;
7997;SDS011;4044;49.814;7.828;2023-04-24T07:34:31;2.67;;;2.47;;
7997;SDS011;4044;49.814;7.828;2023-04-24T07:36:56;2.63;;;2.43;;
7997;SDS011;4044;49.814;7.828;2023-04-24T07:39:22;2.40;;;2.20;;
7997;SDS011;4044;49.814;7.828;2023-04-24T07:41:49;2.90;;;2.40;;
7997;SDS011;4044;49.814;7.828;2023-04-24T07:44:14;4.07;;;2.80;;
7997;SDS011;4044;49.814;7.828;2023-04-24T07:46:40;2.70;;;2.50;;
7997;SDS011;4044;49.814;7.828;2023-04-24T07:49:05;2.30;;;2.10;;
7997;SDS011;4044;49.814;7.828;2023-04-24T07:51:31;2.47;;;2.27;;
7997;SDS011;4044;49.814;7.828;2023-04-24T07:54:02;2.50;;;2.30;;
7997;SDS011;4044;49.814;7.828;2023-04-24T07:56:29;3.77;;;2.33;;
7997;SDS011;4044;49.814;7.828;2023-04-24T07:58:56;2.40;;;2.30;;
7997;SDS011;4044;49.814;7.828;2023-04-24T08:01:21;3.17;;;2.80;;
7997;SDS011;4044;49.814;7.828;2023-04-24T08:03:47;2.50;;;2.30;;
7997;SDS011;4044;49.814;7.828;2023-04-24T08:06:12;2.57;;;2.37;;
7997;SDS011;4044;49.814;7.828;2023-04-24T08:08:38;2.90;;;2.70;;
7997;SDS011;4044;49.814;7.828;2023-04-24T08:11:03;2.80;;;2.60;;
7997;SDS011;4044;49.814;7.828;2023-04-24T08:13:29;2.83;;;2.63;;
7997;SDS011;4044;49.814;7.828;2023-04-24T08:15:54;3.20;;;2.80;;
7997;SDS011;4044;49.814;7.828;2023-04-24T08:18:21;5.40;;;3.03;;
7997;SDS011;4044;49.814;7.828;2023-04-24T08:20:47;3.70;;;2.60;;
7997;SDS011;4044;49.814;7.828;2023-04-24T08:23:12;2.90;;;2.70;;
7997;SDS011;4044;49.814;7.828;2023-04-24T08:25:38;2.80;;;2.60;;
7997;SDS011;4044;49.814;7.828;2023-04-24T08:28:05;2.90;;;2.70;;
7997;SDS011;4044;49.814;7.828;2023-04-24T08:30:31;2.77;;;2.57;;
7997;SDS011;4044;49.814;7.828;2023-04-24T08:32:57;3.10;;;2.80;;
7997;SDS011;4044;49.814;7.828;2023-04-24T08:35:22;2.47;;;2.20;;
7997;SDS011;4044;49.814;7.828;2023-04-24T08:37:48;2.70;;;2.50;;
7997;SDS011;4044;49.814;7.828;2023-04-24T08:40:14;2.57;;;2.40;;
7997;SDS011;4044;49.814;7.828;2023-04-24T08:42:41;3.43;;;2.80;;
7997;SDS011;4044;49.814;7.828;2023-04-24T08:45:09;2.37;;;2.27;;
7997;SDS011;4044;49.814;7.828;2023-04-24T08:47:36;2.90;;;2.70;;
7997;SDS011;4044;49.814;7.828;2023-04-24T08:50:03;3.87;;;2.27;;
7997;SDS011;4044;49.814;7.828;2023-04-24T08:52:31;2.93;;;2.73;;
7997;SDS011;4044;49.814;7.828;2023-04-24T08:54:57;2.53;;;2.43;;
7997;SDS011;4044;49.814;7.828;2023-04-24T08:57:25;2.10;;;2.00;;
7997;SDS011;4044;49.814;7.828;2023-04-24T08:59:51;2.40;;;2.07;;
7997;SDS011;4044;49.814;7.828;2023-04-24T09:02:18;1.93;;;1.83;;
7997;SDS011;4044;49.814;7.828;2023-04-24T09:04:43;3.17;;;2.20;;
7997;SDS011;4044;49.814;7.828;2023-04-24T09:07:10;2.37;;;2.20;;
7997;SDS011;4044;49.814;7.828;2023-04-24T09:09:37;2.47;;;2.37;;
7997;SDS011;4044;49.814;7.828;2023-04-24T09:12:04;3.20;;;2.20;;
7997;SDS011;4044;49.814;7.828;2023-04-24T09:14:29;2.73;;;2.30;;
7997;SDS011;4044;49.814;7.828;2023-04-24T09:16:56;3.13;;;2.20;;
7997;SDS011;4044;49.814;7.828;2023-04-24T09:19:22;2.57;;;2.40;;
7997;SDS011;4044;49.814;7.828;2023-04-24T09:21:48;2.27;;;2.07;;
7997;SDS011;4044;49.814;7.828;2023-04-24T09:24:17;2.40;;;2.00;;
7997;SDS011;4044;49.814;7.828;2023-04-24T09:26:45;2.53;;;2.33;;
7997;SDS011;4044;49.814;7.828;2023-04-24T09:29:18;2.10;;;2.00;;
7997;SDS011;4044;49.814;7.828;2023-04-24T09:31:44;2.63;;;2.17;;
7997;SDS011;4044;49.814;7.828;2023-04-24T09:34:11;2.10;;;2.00;;
7997;SDS011;4044;49.814;7.828;2023-04-24T09:36:38;2.33;;;2.10;;
7997;SDS011;4044;49.814;7.828;2023-04-24T09:39:06;2.40;;;2.00;;
7997;SDS011;4044;49.814;7.828;2023-04-24T09:41:35;2.23;;;2.10;;
7997;SDS011;4044;49.814;7.828;2023-04-24T09:46:38;2.20;;;2.10;;
7997;SDS011;4044;49.814;7.828;2023-04-24T09:49:09;2.40;;;2.20;;
7997;SDS011;4044;49.814;7.828;2023-04-24T09:51:37;3.17;;;2.10;;
7997;SDS011;4044;49.814;7.828;2023-04-24T09:54:03;2.20;;;2.10;;
7997;SDS011;4044;49.814;7.828;2023-04-24T09:56:37;2.43;;;2.17;;
7997;SDS011;4044;49.814;7.828;2023-04-24T09:59:08;2.20;;;2.10;;
7997;SDS011;4044;49.814;7.828;2023-04-24T10:01:34;2.70;;;2.17;;
7997;SDS011;4044;49.814;7.828;2023-04-24T10:03:59;1.98;;;1.88;;
7997;SDS011;4044;49.814;7.828;2023-04-24T10:06:35;2.28;;;2.17;;
7997;SDS011;4044;49.814;7.828;2023-04-24T10:09:01;3.15;;;2.10;;
7997;SDS011;4044;49.814;7.828;2023-04-24T10:11:28;2.37;;;2.23;;
7997;SDS011;4044;49.814;7.828;2023-04-24T10:13:55;2.40;;;2.30;;
7997;SDS011;4044;49.814;7.828;2023-04-24T10:16:22;2.43;;;1.90;;
7997;SDS011;4044;49.814;7.828;2023-04-24T10:18:48;2.43;;;2.30;;
7997;SDS011;4044;49.814;7.828;2023-04-24T10:21:14;2.27;;;2.00;;
7997;SDS011;4044;49.814;7.828;2023-04-24T10:23:41;3.10;;;2.10;;
7997;SDS011;4044;49.814;7.828;2023-04-24T10:26:10;2.50;;;2.07;;
7997;SDS011;4044;49.814;7.828;2023-04-24T10:28:42;1.70;;;1.60;;
7997;SDS011;4044;49.814;7.828;2023-04-24T10:31:10;1.80;;;1.70;;
7997;SDS011;4044;49.814;7.828;2023-04-24T10:33:36;2.10;;;1.93;;
7997;SDS011;4044;49.814;7.828;2023-04-24T10:36:06;1.80;;;1.70;;
7997;SDS011;4044;49.814;7.828;2023-04-24T10:38:33;2.60;;;2.40;;
7997;SDS011;4044;49.814;7.828;2023-04-24T10:41:06;2.30;;;2.10;;
7997;SDS011;4044;49.814;7.828;2023-04-24T10:43:41;2.13;;;2.03;;
7997;SDS011;4044;49.814;7.828;2023-04-24T10:46:07;2.80;;;2.60;;
7997;SDS011;4044;49.814;7.828;2023-04-24T10:48:35;2.20;;;2.10;;
7997;SDS011;4044;49.814;7.828;2023-04-24T10:51:10;3.03;;;2.63;;
7997;SDS011;4044;49.814;7.828;2023-04-24T10:53:37;3.83;;;2.60;;
7997;SDS011;4044;49.814;7.828;2023-04-24T10:58:40;2.70;;;2.50;;
7997;SDS011;4044;49.814;7.828;2023-04-24T11:01:27;2.50;;;2.30;;
7997;SDS011;4044;49.814;7.828;2023-04-24T11:04:01;2.90;;;2.70;;
7997;SDS011;4044;49.814;7.828;2023-04-24T11:06:32;3.33;;;3.03;;
7997;SDS011;4044;49.814;7.828;2023-04-24T11:09:06;2.87;;;2.67;;
7997;SDS011;4044;49.814;7.828;2023-04-24T11:11:33;3.50;;;3.20;;
7997;SDS011;4044;49.814;7.828;2023-04-24T11:14:01;3.87;;;3.50;;
7997;SDS011;4044;49.814;7.828;2023-04-24T11:21:45;3.57;;;3.20;;
7997;SDS011;4044;49.814;7.828;2023-04-24T11:29:37;3.37;;;2.90;;
7997;SDS011;4044;49.814;7.828;2023-04-24T11:32:16;3.57;;;3.27;;
7997;SDS011;4044;49.814;7.828;2023-04-24T11:34:58;3.20;;;2.90;;
7997;SDS011;4044;49.814;7.828;2023-04-24T11:37:28;4.07;;;3.10;;
7997;SDS011;4044;49.814;7.828;2023-04-24T11:39:58;3.97;;;3.57;;
7997;SDS011;4044;49.814;7.828;2023-04-24T11:42:24;3.80;;;3.50;;
7997;SDS011;4044;49.814;7.828;2023-04-24T11:44:51;4.20;;;3.67;;
7997;SDS011;4044;49.814;7.828;2023-04-24T11:47:18;3.27;;;2.90;;
7997;SDS011;4044;49.814;7.828;2023-04-24T11:49:43;4.07;;;3.50;;
7997;SDS011;4044;49.814;7.828;2023-04-24T11:52:09;2.90;;;2.70;;
7997;SDS011;4044;49.814;7.828;2023-04-24T11:54:35;3.30;;;3.00;;
7997;SDS011;4044;49.814;7.828;2023-04-24T11:57:03;3.63;;;3.30;;
7997;SDS011;4044;49.814;7.828;2023-04-24T11:59:35;3.40;;;2.83;;
7997;SDS011;4044;49.814;7.828;2023-04-24T12:02:02;3.20;;;2.90;;
7997;SDS011;4044;49.814;7.828;2023-04-24T12:04:37;2.90;;;2.70;;
7997;SDS011;4044;49.814;7.828;2023-04-24T12:07:04;4.13;;;3.20;;
7997;SDS011;4044;49.814;7.828;2023-04-24T12:12:08;3.10;;;2.90;;
7997;SDS011;4044;49.814;7.828;2023-04-24T12:14:41;3.73;;;3.10;;
7997;SDS011;4044;49.814;7.828;2023-04-24T12:17:28;3.53;;;3.13;;
7997;SDS011;4044;49.814;7.828;2023-04-24T12:20:02;4.00;;;3.03;;
7997;SDS011;4044;49.814;7.828;2023-04-24T12:22:48;4.40;;;3.20;;
7997;SDS011;4044;49.814;7.828;2023-04-24T12:25:17;4.38;;;3.30;;
7997;SDS011;4044;49.814;7.828;2023-04-24T12:27:46;3.35;;;3.08;;
7997;SDS011;4044;49.814;7.828;2023-04-24T12:30:18;3.47;;;3.17;;
7997;SDS011;4044;49.814;7.828;2023-04-24T12:32:45;3.07;;;2.87;;
7997;SDS011;4044;49.814;7.828;2023-04-24T12:35:12;3.63;;;3.33;;
7997;SDS011;4044;49.814;7.828;2023-04-24T12:37:38;3.57;;;3.20;;
7997;SDS011;4044;49.814;7.828;2023-04-24T12:40:11;3.97;;;3.23;;
7997;SDS011;4044;49.814;7.828;2023-04-24T12:42:47;3.90;;;3.60;;
7997;SDS011;4044;49.814;7.828;2023-04-24T12:45:14;4.50;;;3.57;;
7997;SDS011;4044;49.814;7.828;2023-04-24T12:47:41;10.80;;;4.27;;
7997;SDS011;4044;49.814;7.828;2023-04-24T12:50:09;4.50;;;3.90;;
7997;SDS011;4044;49.814;7.828;2023-04-24T12:52:35;4.07;;;3.27;;
7997;SDS011;4044;49.814;7.828;2023-04-24T12:55:02;4.10;;;3.70;;
7997;SDS011;4044;49.814;7.828;2023-04-24T12:57:28;3.27;;;2.97;;
7997;SDS011;4044;49.814;7.828;2023-04-24T12:59:55;3.87;;;2.90;;
7997;SDS011;4044;49.814;7.828;2023-04-24T13:02:22;4.10;;;3.00;;
7997;SDS011;4044;49.814;7.828;2023-04-24T13:04:48;4.87;;;3.07;;
7997;SDS011;4044;49.814;7.828;2023-04-24T13:07:14;3.93;;;3.10;;
7997;SDS011;4044;49.814;7.828;2023-04-24T13:09:41;4.83;;;3.27;;
7997;SDS011;4044;49.814;7.828;2023-04-24T13:12:07;3.57;;;3.27;;
7997;SDS011;4044;49.814;7.828;2023-04-24T13:14:34;4.53;;;3.00;;
7997;SDS011;4044;49.814;7.828;2023-04-24T13:17:00;3.37;;;3.07;;
7997;SDS011;4044;49.814;7.828;2023-04-24T13:19:26;4.07;;;3.00;;
7997;SDS011;4044;49.814;7.828;2023-04-24T13:21:52;3.87;;;3.00;;
7997;SDS011;4044;49.814;7.828;2023-04-24T13:24:24;3.67;;;3.40;;
7997;SDS011;4044;49.814;7.828;2023-04-24T13:26:49;4.30;;;3.67;;
7997;SDS011;4044;49.814;7.828;2023-04-24T13:29:15;6.40;;;3.30;;
7997;SDS011;4044;49.814;7.828;2023-04-24T13:31:41;3.47;;;3.20;;
7997;SDS011;4044;49.814;7.828;2023-04-24T13:34:06;3.25;;;2.95;;
7997;SDS011;4044;49.814;7.828;2023-04-24T13:36:32;3.10;;;2.80;;
7997;SDS011;4044;49.814;7.828;2023-04-24T13:38:57;3.80;;;2.90;;
7997;SDS011;4044;49.814;7.828;2023-04-24T13:41:23;3.20;;;2.80;;
7997;SDS011;4044;49.814;7.828;2023-04-24T13:43:49;3.23;;;3.00;;
7997;SDS011;4044;49.814;7.828;2023-04-24T13:46:14;3.77;;;3.20;;
7997;SDS011;4044;49.814;7.828;2023-04-24T13:48:40;3.38;;;3.08;;
7997;SDS011;4044;49.814;7.828;2023-04-24T13:51:05;3.20;;;2.90;;
7997;SDS011;4044;49.814;7.828;2023-04-24T13:53:31;4.03;;;3.53;;
7997;SDS011;4044;49.814;7.828;2023-04-24T13:55:57;3.10;;;2.90;;
7997;SDS011;4044;49.814;7.828;2023-04-24T13:58:23;3.50;;;3.20;;
7997;SDS011;4044;49.814;7.828;2023-04-24T14:00:48;3.10;;;2.90;;
7997;SDS011;4044;49.814;7.828;2023-04-24T14:03:14;3.93;;;3.40;;
7997;SDS011;4044;49.814;7.828;2023-04-24T14:05:40;3.72;;;3.40;;
7997;SDS011;4044;49.814;7.828;2023-04-24T14:08:05;6.33;;;3.60;;
7997;SDS011;4044;49.814;7.828;2023-04-24T14:10:31;6.03;;;4.57;;
7997;SDS011;4044;49.814;7.828;2023-04-24T14:12:56;4.20;;;3.70;;
7997;SDS011;4044;49.814;7.828;2023-04-24T14:15:22;4.63;;;3.60;;
7997;SDS011;4044;49.814;7.828;2023-04-24T14:17:48;3.40;;;3.20;;
7997;SDS011;4044;49.814;7.828;2023-04-24T14:20:14;4.25;;;3.90;;
7997;SDS011;4044;49.814;7.828;2023-04-24T14:22:40;3.90;;;3.60;;
7997;SDS011;4044;49.814;7.828;2023-04-24T14:25:06;4.13;;;3.83;;
7997;SDS011;4044;49.814;7.828;2023-04-24T14:27:32;4.28;;;3.60;;
7997;SDS011;4044;49.814;7.828;2023-04-24T14:29:59;3.75;;;3.45;;
7997;SDS011;4044;49.814;7.828;2023-04-24T14:32:25;4.00;;;3.70;;
7997;SDS011;4044;49.814;7.828;2023-04-24T14:34:50;3.80;;;3.50;;
7997;SDS011;4044;49.814;7.828;2023-04-24T14:37:16;3.33;;;3.13;;
7997;SDS011;4044;49.814;7.828;2023-04-24T14:39:41;4.07;;;3.67;;
7997;SDS011;4044;49.814;7.828;2023-04-24T14:42:07;4.35;;;3.95;;
7997;SDS011;4044;49.814;7.828;2023-04-24T14:44:32;3.95;;;3.65;;
7997;SDS011;4044;49.814;7.828;2023-04-24T14:46:58;5.15;;;3.67;;
7997;SDS011;4044;49.814;7.828;2023-04-24T14:49:24;4.75;;;3.80;;
7997;SDS011;4044;49.814;7.828;2023-04-24T14:51:50;3.55;;;3.25;;
7997;SDS011;4044;49.814;7.828;2023-04-24T14:54:16;3.17;;;2.97;;
7997;SDS011;4044;49.814;7.828;2023-04-24T14:56:41;3.45;;;3.20;;
7997;SDS011;4044;49.814;7.828;2023-04-24T14:59:08;3.25;;;2.95;;
7997;SDS011;4044;49.814;7.828;2023-04-24T15:01:34;3.10;;;2.80;;
7997;SDS011;4044;49.814;7.828;2023-04-24T15:03:59;2.90;;;2.42;;
7997;SDS011;4044;49.814;7.828;2023-04-24T15:06:25;3.40;;;3.10;;
7997;SDS011;4044;49.814;7.828;2023-04-24T15:08:50;3.33;;;3.05;;
7997;SDS011;4044;49.814;7.828;2023-04-24T15:11:16;3.00;;;2.80;;
7997;SDS011;4044;49.814;7.828;2023-04-24T15:13:42;4.78;;;3.30;;
7997;SDS011;4044;49.814;7.828;2023-04-24T15:16:10;3.25;;;3.05;;
7997;SDS011;4044;49.814;7.828;2023-04-24T15:18:35;4.30;;;3.00;;
7997;SDS011;4044;49.814;7.828;2023-04-24T15:21:01;2.95;;;2.75;;
7997;SDS011;4044;49.814;7.828;2023-04-24T15:23:27;2.95;;;2.53;;
7997;SDS011;4044;49.814;7.828;2023-04-24T15:25:52;3.63;;;3.33;;
7997;SDS011;4044;49.814;7.828;2023-04-24T15:28:18;3.10;;;2.90;;
7997;SDS011;4044;49.814;7.828;2023-04-24T15:30:43;4.20;;;3.35;;